sensor_id;sensor_type;location;lat;lon;timestamp;temperature;humidity
16315;DHT22;8266;52.150;4.768;2023-04-03T00:00:49;7.60;99.90
16315;DHT22;8266;52.150;4.768;2023-04-03T00:03:19;7.60;99.90
16315;DHT22;8266;52.150;4.768;2023-04-03T00:05:46;7.60;99.90
16315;DHT22;8266;52.150;4.768;2023-04-03T00:08:13;7.50;99.90
16315;DHT22;8266;52.150;4.768;2023-04-03T00:10:41;7.50;99.90
16315;DHT22;8266;52.150;4.768;2023-04-03T00:13:08;7.50;99.90
16315;DHT22;8266;52.150;4.768;2023-04-03T00:15:37;7.50;99.90
16315;DHT22;8266;52.150;4.768;2023-04-03T00:18:04;7.50;99.90
16315;DHT22;8266;52.150;4.768;2023-04-03T00:20:33;7.40;99.90
16315;DHT22;8266;52.150;4.768;2023-04-03T00:23:01;7.40;99.90
16315;DHT22;8266;52.150;4.768;2023-04-03T00:25:28;7.40;99.90
16315;DHT22;8266;52.150;4.768;2023-04-03T00:27:56;7.30;99.90
16315;DHT22;8266;52.150;4.768;2023-04-03T00:30:23;7.30;99.90
16315;DHT22;8266;52.150;4.768;2023-04-03T00:32:51;7.30;99.90
16315;DHT22;8266;52.150;4.768;2023-04-03T00:35:20;7.30;99.90
16315;DHT22;8266;52.150;4.768;2023-04-03T00:37:51;7.20;99.90
16315;DHT22;8266;52.150;4.768;2023-04-03T00:40:20;7.20;99.90
16315;DHT22;8266;52.150;4.768;2023-04-03T00:42:49;7.20;99.90
16315;DHT22;8266;52.150;4.768;2023-04-03T00:45:28;7.10;99.90
16315;DHT22;8266;52.150;4.768;2023-04-03T00:47:56;7.10;99.90
16315;DHT22;8266;52.150;4.768;2023-04-03T00:50:25;7.10;99.90
16315;DHT22;8266;52.150;4.768;2023-04-03T00:52:54;7.10;99.90
16315;DHT22;8266;52.150;4.768;2023-04-03T00:55:22;7.10;99.90
16315;DHT22;8266;52.150;4.768;2023-04-03T00:57:50;7.00;99.90
16315;DHT22;8266;52.150;4.768;2023-04-03T01:00:20;7.00;99.90
16315;DHT22;8266;52.150;4.768;2023-04-03T01:02:48;7.00;99.90
16315;DHT22;8266;52.150;4.768;2023-04-03T01:05:16;7.00;99.90
16315;DHT22;8266;52.150;4.768;2023-04-03T01:07:45;6.90;99.90
16315;DHT22;8266;52.150;4.768;2023-04-03T01:10:16;6.90;99.90
16315;DHT22;8266;52.150;4.768;2023-04-03T01:12:46;6.90;99.90
16315;DHT22;8266;52.150;4.768;2023-04-03T01:15:16;6.80;99.90
16315;DHT22;8266;52.150;4.768;2023-04-03T01:17:46;6.90;99.90
16315;DHT22;8266;52.150;4.768;2023-04-03T01:23:16;6.80;99.90
16315;DHT22;8266;52.150;4.768;2023-04-03T01:25:51;6.80;99.90
16315;DHT22;8266;52.150;4.768;2023-04-03T01:28:24;6.80;99.90
16315;DHT22;8266;52.150;4.768;2023-04-03T01:30:59;6.70;99.90
16315;DHT22;8266;52.150;4.768;2023-04-03T01:33:30;6.70;99.90
16315;DHT22;8266;52.150;4.768;2023-04-03T01:35:58;6.70;99.90
16315;DHT22;8266;52.150;4.768;2023-04-03T01:38:25;6.70;99.90
16315;DHT22;8266;52.150;4.768;2023-04-03T01:40:52;6.70;99.90
16315;DHT22;8266;52.150;4.768;2023-04-03T01:43:19;6.70;99.90
16315;DHT22;8266;52.150;4.768;2023-04-03T01:45:48;6.60;99.90
16315;DHT22;8266;52.150;4.768;2023-04-03T01:48:18;6.60;99.90
16315;DHT22;8266;52.150;4.768;2023-04-03T01:50:47;6.60;99.90
16315;DHT22;8266;52.150;4.768;2023-04-03T01:53:15;6.60;99.90
16315;DHT22;8266;52.150;4.768;2023-04-03T01:55:42;6.60;99.90
16315;DHT22;8266;52.150;4.768;2023-04-03T01:58:09;6.50;99.90
16315;DHT22;8266;52.150;4.768;2023-04-03T02:00:36;6.50;99.90
16315;DHT22;8266;52.150;4.768;2023-04-03T02:03:03;6.50;99.90
16315;DHT22;8266;52.150;4.768;2023-04-03T02:05:31;6.50;99.90
16315;DHT22;8266;52.150;4.768;2023-04-03T02:07:59;6.40;99.90
16315;DHT22;8266;52.150;4.768;2023-04-03T02:10:26;6.40;99.90
16315;DHT22;8266;52.150;4.768;2023-04-03T02:12:54;6.40;99.90
16315;DHT22;8266;52.150;4.768;2023-04-03T02:15:21;6.40;99.90
16315;DHT22;8266;52.150;4.768;2023-04-03T02:17:48;6.40;99.90
16315;DHT22;8266;52.150;4.768;2023-04-03T02:20:15;6.40;99.90
16315;DHT22;8266;52.150;4.768;2023-04-03T02:22:42;6.40;99.90
16315;DHT22;8266;52.150;4.768;2023-04-03T02:25:11;6.40;99.90
16315;DHT22;8266;52.150;4.768;2023-04-03T02:27:38;6.40;99.90
16315;DHT22;8266;52.150;4.768;2023-04-03T02:30:06;6.40;99.90
16315;DHT22;8266;52.150;4.768;2023-04-03T02:32:36;6.40;99.90
16315;DHT22;8266;52.150;4.768;2023-04-03T02:35:03;6.40;99.90
16315;DHT22;8266;52.150;4.768;2023-04-03T02:37:31;6.40;99.90
16315;DHT22;8266;52.150;4.768;2023-04-03T02:39:58;6.40;99.90
16315;DHT22;8266;52.150;4.768;2023-04-03T02:42:27;6.40;99.90
16315;DHT22;8266;52.150;4.768;2023-04-03T02:44:54;6.40;99.90
16315;DHT22;8266;52.150;4.768;2023-04-03T02:47:22;6.40;99.90
16315;DHT22;8266;52.150;4.768;2023-04-03T02:49:49;6.40;99.90
16315;DHT22;8266;52.150;4.768;2023-04-03T02:52:16;6.40;99.90
16315;DHT22;8266;52.150;4.768;2023-04-03T02:54:43;6.40;99.90
16315;DHT22;8266;52.150;4.768;2023-04-03T02:57:10;6.40;99.90
16315;DHT22;8266;52.150;4.768;2023-04-03T02:59:39;6.40;99.90
16315;DHT22;8266;52.150;4.768;2023-04-03T03:02:07;6.40;99.90
16315;DHT22;8266;52.150;4.768;2023-04-03T03:04:34;6.30;99.90
16315;DHT22;8266;52.150;4.768;2023-04-03T03:07:01;6.30;99.90
16315;DHT22;8266;52.150;4.768;2023-04-03T03:09:28;6.30;99.90
16315;DHT22;8266;52.150;4.768;2023-04-03T03:11:56;6.30;99.90
16315;DHT22;8266;52.150;4.768;2023-04-03T03:14:26;6.30;99.90
16315;DHT22;8266;52.150;4.768;2023-04-03T03:16:54;6.20;99.90
16315;DHT22;8266;52.150;4.768;2023-04-03T03:19:22;6.10;99.90
16315;DHT22;8266;52.150;4.768;2023-04-03T03:21:49;6.10;99.90
16315;DHT22;8266;52.150;4.768;2023-04-03T03:24:17;6.10;99.90
16315;DHT22;8266;52.150;4.768;2023-04-03T03:26:44;6.00;99.90
16315;DHT22;8266;52.150;4.768;2023-04-03T03:29:11;6.00;99.90
16315;DHT22;8266;52.150;4.768;2023-04-03T03:31:38;5.90;99.90
16315;DHT22;8266;52.150;4.768;2023-04-03T03:34:07;5.90;99.90
16315;DHT22;8266;52.150;4.768;2023-04-03T03:36:34;5.90;99.90
16315;DHT22;8266;52.150;4.768;2023-04-03T03:39:01;5.80;99.90
16315;DHT22;8266;52.150;4.768;2023-04-03T03:41:28;5.80;99.90
16315;DHT22;8266;52.150;4.768;2023-04-03T03:43:55;5.80;99.90
16315;DHT22;8266;52.150;4.768;2023-04-03T03:46:24;5.70;99.90
16315;DHT22;8266;52.150;4.768;2023-04-03T03:48:51;5.70;99.90
16315;DHT22;8266;52.150;4.768;2023-04-03T03:51:19;5.70;99.90
16315;DHT22;8266;52.150;4.768;2023-04-03T03:53:46;5.60;99.90
16315;DHT22;8266;52.150;4.768;2023-04-03T03:56:14;5.60;99.90
16315;DHT22;8266;52.150;4.768;2023-04-03T03:58:43;5.60;99.90
16315;DHT22;8266;52.150;4.768;2023-04-03T04:01:10;5.60;99.90
16315;DHT22;8266;52.150;4.768;2023-04-03T04:03:37;5.50;99.90
16315;DHT22;8266;52.150;4.768;2023-04-03T04:06:04;5.50;99.90
16315;DHT22;8266;52.150;4.768;2023-04-03T04:08:32;5.50;99.90
16315;DHT22;8266;52.150;4.768;2023-04-03T04:11:00;5.50;99.90
16315;DHT22;8266;52.150;4.768;2023-04-03T04:13:27;5.40;99.90
16315;DHT22;8266;52.150;4.768;2023-04-03T04:15:54;5.40;99.90
16315;DHT22;8266;52.150;4.768;2023-04-03T04:18:21;5.40;99.90
16315;DHT22;8266;52.150;4.768;2023-04-03T04:20:49;5.40;99.90
16315;DHT22;8266;52.150;4.768;2023-04-03T04:23:17;5.40;99.90
16315;DHT22;8266;52.150;4.768;2023-04-03T04:25:46;5.30;99.90
16315;DHT22;8266;52.150;4.768;2023-04-03T04:28:14;5.30;99.90
16315;DHT22;8266;52.150;4.768;2023-04-03T04:30:41;5.30;99.90
16315;DHT22;8266;52.150;4.768;2023-04-03T04:33:08;5.30;99.90
16315;DHT22;8266;52.150;4.768;2023-04-03T04:35:35;5.30;99.90
16315;DHT22;8266;52.150;4.768;2023-04-03T04:38:03;5.30;99.90
16315;DHT22;8266;52.150;4.768;2023-04-03T04:40:30;5.30;99.90
16315;DHT22;8266;52.150;4.768;2023-04-03T04:42:59;5.30;99.90
16315;DHT22;8266;52.150;4.768;2023-04-03T04:45:26;5.30;99.90
16315;DHT22;8266;52.150;4.768;2023-04-03T04:47:55;5.30;99.90
16315;DHT22;8266;52.150;4.768;2023-04-03T04:50:22;5.30;99.90
16315;DHT22;8266;52.150;4.768;2023-04-03T04:52:51;5.30;99.90
16315;DHT22;8266;52.150;4.768;2023-04-03T04:55:20;5.30;99.90
16315;DHT22;8266;52.150;4.768;2023-04-03T04:57:47;5.30;99.90
16315;DHT22;8266;52.150;4.768;2023-04-03T05:00:17;5.30;99.90
16315;DHT22;8266;52.150;4.768;2023-04-03T05:02:44;5.30;99.90
16315;DHT22;8266;52.150;4.768;2023-04-03T05:05:11;5.30;99.90
16315;DHT22;8266;52.150;4.768;2023-04-03T05:07:38;5.30;99.90
16315;DHT22;8266;52.150;4.768;2023-04-03T05:10:11;5.30;99.90
16315;DHT22;8266;52.150;4.768;2023-04-03T05:12:38;5.30;99.90
16315;DHT22;8266;52.150;4.768;2023-04-03T05:15:07;5.40;99.90
16315;DHT22;8266;52.150;4.768;2023-04-03T05:17:37;5.40;99.90
16315;DHT22;8266;52.150;4.768;2023-04-03T05:20:05;5.40;99.90
16315;DHT22;8266;52.150;4.768;2023-04-03T05:22:32;5.40;99.90
16315;DHT22;8266;52.150;4.768;2023-04-03T05:25:00;5.40;99.90
16315;DHT22;8266;52.150;4.768;2023-04-03T05:27:28;5.30;99.90
16315;DHT22;8266;52.150;4.768;2023-04-03T05:30:00;5.40;99.90
16315;DHT22;8266;52.150;4.768;2023-04-03T05:32:27;5.40;99.90
16315;DHT22;8266;52.150;4.768;2023-04-03T05:34:55;5.40;99.90
16315;DHT22;8266;52.150;4.768;2023-04-03T05:37:23;5.40;99.90
16315;DHT22;8266;52.150;4.768;2023-04-03T05:39:50;5.40;99.90
16315;DHT22;8266;52.150;4.768;2023-04-03T05:42:19;5.40;99.90
16315;DHT22;8266;52.150;4.768;2023-04-03T05:44:46;5.40;99.90
16315;DHT22;8266;52.150;4.768;2023-04-03T05:47:15;5.40;99.90
16315;DHT22;8266;52.150;4.768;2023-04-03T05:49:42;5.40;99.90
16315;DHT22;8266;52.150;4.768;2023-04-03T05:52:28;5.40;99.90
16315;DHT22;8266;52.150;4.768;2023-04-03T05:55:00;5.50;99.90
16315;DHT22;8266;52.150;4.768;2023-04-03T05:57:27;5.40;99.90
16315;DHT22;8266;52.150;4.768;2023-04-03T05:59:57;5.40;99.90
16315;DHT22;8266;52.150;4.768;2023-04-03T06:02:24;5.50;99.90
16315;DHT22;8266;52.150;4.768;2023-04-03T06:04:52;5.50;99.90
16315;DHT22;8266;52.150;4.768;2023-04-03T06:07:23;5.50;99.90
16315;DHT22;8266;52.150;4.768;2023-04-03T06:09:54;5.50;99.90
16315;DHT22;8266;52.150;4.768;2023-04-03T06:12:22;5.50;99.90
16315;DHT22;8266;52.150;4.768;2023-04-03T06:14:50;5.50;99.90
16315;DHT22;8266;52.150;4.768;2023-04-03T06:17:18;5.60;99.90
16315;DHT22;8266;52.150;4.768;2023-04-03T06:19:46;5.60;99.90
16315;DHT22;8266;52.150;4.768;2023-04-03T06:22:15;5.60;99.90
16315;DHT22;8266;52.150;4.768;2023-04-03T06:24:44;5.60;99.90
16315;DHT22;8266;52.150;4.768;2023-04-03T06:27:12;5.60;99.90
16315;DHT22;8266;52.150;4.768;2023-04-03T06:29:39;5.60;99.90
16315;DHT22;8266;52.150;4.768;2023-04-03T06:32:06;5.70;99.90
16315;DHT22;8266;52.150;4.768;2023-04-03T06:34:33;5.70;99.90
16315;DHT22;8266;52.150;4.768;2023-04-03T06:37:02;5.70;99.90
16315;DHT22;8266;52.150;4.768;2023-04-03T06:39:29;5.80;99.90
16315;DHT22;8266;52.150;4.768;2023-04-03T06:41:58;5.80;99.90
16315;DHT22;8266;52.150;4.768;2023-04-03T06:44:25;5.80;99.90
16315;DHT22;8266;52.150;4.768;2023-04-03T06:46:52;5.80;99.90
16315;DHT22;8266;52.150;4.768;2023-04-03T06:49:19;5.90;99.90
16315;DHT22;8266;52.150;4.768;2023-04-03T06:51:47;5.90;99.90
16315;DHT22;8266;52.150;4.768;2023-04-03T06:54:14;5.90;99.90
16315;DHT22;8266;52.150;4.768;2023-04-03T06:56:47;5.90;99.90
16315;DHT22;8266;52.150;4.768;2023-04-03T06:59:15;6.00;99.90
16315;DHT22;8266;52.150;4.768;2023-04-03T07:01:42;6.00;99.90
16315;DHT22;8266;52.150;4.768;2023-04-03T07:04:09;6.00;99.90
16315;DHT22;8266;52.150;4.768;2023-04-03T07:06:37;6.00;99.90
16315;DHT22;8266;52.150;4.768;2023-04-03T07:09:04;6.00;99.90
16315;DHT22;8266;52.150;4.768;2023-04-03T07:11:31;6.10;99.90
16315;DHT22;8266;52.150;4.768;2023-04-03T07:14:01;6.10;99.90
16315;DHT22;8266;52.150;4.768;2023-04-03T07:16:30;6.10;99.90
16315;DHT22;8266;52.150;4.768;2023-04-03T07:19:00;6.10;99.90
16315;DHT22;8266;52.150;4.768;2023-04-03T07:21:30;6.20;99.90
16315;DHT22;8266;52.150;4.768;2023-04-03T07:24:05;6.20;99.90
16315;DHT22;8266;52.150;4.768;2023-04-03T07:26:32;6.50;99.90
16315;DHT22;8266;52.150;4.768;2023-04-03T07:29:02;6.80;99.90
16315;DHT22;8266;52.150;4.768;2023-04-03T07:31:31;7.30;99.90
16315;DHT22;8266;52.150;4.768;2023-04-03T07:33:59;7.80;99.90
16315;DHT22;8266;52.150;4.768;2023-04-03T07:36:26;8.30;99.90
16315;DHT22;8266;52.150;4.768;2023-04-03T07:38:53;8.80;99.90
16315;DHT22;8266;52.150;4.768;2023-04-03T07:41:20;9.30;99.90
16315;DHT22;8266;52.150;4.768;2023-04-03T07:43:48;9.80;99.90
16315;DHT22;8266;52.150;4.768;2023-04-03T07:46:17;10.30;99.90
16315;DHT22;8266;52.150;4.768;2023-04-03T07:48:46;10.70;99.90
16315;DHT22;8266;52.150;4.768;2023-04-03T07:51:13;11.20;99.90
16315;DHT22;8266;52.150;4.768;2023-04-03T07:53:41;11.60;99.90
16315;DHT22;8266;52.150;4.768;2023-04-03T07:56:08;11.90;99.90
16315;DHT22;8266;52.150;4.768;2023-04-03T07:58:36;12.30;99.90
16315;DHT22;8266;52.150;4.768;2023-04-03T08:01:04;12.50;99.90
16315;DHT22;8266;52.150;4.768;2023-04-03T08:03:31;12.70;99.90
16315;DHT22;8266;52.150;4.768;2023-04-03T08:06:03;12.90;99.90
16315;DHT22;8266;52.150;4.768;2023-04-03T08:08:31;13.20;99.90
16315;DHT22;8266;52.150;4.768;2023-04-03T08:10:59;13.40;99.90
16315;DHT22;8266;52.150;4.768;2023-04-03T08:13:29;13.60;99.90
16315;DHT22;8266;52.150;4.768;2023-04-03T08:15:56;13.80;99.90
16315;DHT22;8266;52.150;4.768;2023-04-03T08:18:24;13.90;99.90
16315;DHT22;8266;52.150;4.768;2023-04-03T08:20:52;14.10;99.90
16315;DHT22;8266;52.150;4.768;2023-04-03T08:23:21;14.20;99.90
16315;DHT22;8266;52.150;4.768;2023-04-03T08:25:48;14.30;99.90
16315;DHT22;8266;52.150;4.768;2023-04-03T08:28:18;14.40;99.90
16315;DHT22;8266;52.150;4.768;2023-04-03T08:30:48;14.50;99.90
16315;DHT22;8266;52.150;4.768;2023-04-03T08:33:16;14.60;99.90
16315;DHT22;8266;52.150;4.768;2023-04-03T08:35:43;14.70;99.90
16315;DHT22;8266;52.150;4.768;2023-04-03T08:38:11;14.90;99.90
16315;DHT22;8266;52.150;4.768;2023-04-03T08:40:40;15.10;99.90
16315;DHT22;8266;52.150;4.768;2023-04-03T08:43:28;15.30;99.90
16315;DHT22;8266;52.150;4.768;2023-04-03T08:46:01;15.60;99.90
16315;DHT22;8266;52.150;4.768;2023-04-03T08:48:32;15.80;99.90
16315;DHT22;8266;52.150;4.768;2023-04-03T08:51:03;16.00;99.90
16315;DHT22;8266;52.150;4.768;2023-04-03T08:53:36;16.10;99.90
16315;DHT22;8266;52.150;4.768;2023-04-03T08:56:10;16.20;99.90
16315;DHT22;8266;52.150;4.768;2023-04-03T08:58:46;16.30;99.90
16315;DHT22;8266;52.150;4.768;2023-04-03T09:01:19;16.20;99.90
16315;DHT22;8266;52.150;4.768;2023-04-03T09:03:47;16.20;99.90
16315;DHT22;8266;52.150;4.768;2023-04-03T09:06:16;16.20;99.90
16315;DHT22;8266;52.150;4.768;2023-04-03T09:08:48;16.10;99.90
16315;DHT22;8266;52.150;4.768;2023-04-03T09:11:23;16.20;99.90
16315;DHT22;8266;52.150;4.768;2023-04-03T09:13:56;16.30;99.90
16315;DHT22;8266;52.150;4.768;2023-04-03T09:16:38;16.30;99.90
16315;DHT22;8266;52.150;4.768;2023-04-03T09:19:15;16.30;99.90
16315;DHT22;8266;52.150;4.768;2023-04-03T09:21:45;16.30;99.90
16315;DHT22;8266;52.150;4.768;2023-04-03T09:24:14;16.40;99.90
16315;DHT22;8266;52.150;4.768;2023-04-03T09:26:48;16.40;99.90
16315;DHT22;8266;52.150;4.768;2023-04-03T09:29:22;16.40;99.90
16315;DHT22;8266;52.150;4.768;2023-04-03T09:31:54;16.40;99.90
16315;DHT22;8266;52.150;4.768;2023-04-03T09:34:25;16.40;99.90
16315;DHT22;8266;52.150;4.768;2023-04-03T09:36:57;16.40;99.90
16315;DHT22;8266;52.150;4.768;2023-04-03T09:39:26;16.40;99.90
16315;DHT22;8266;52.150;4.768;2023-04-03T09:42:03;16.40;99.90
16315;DHT22;8266;52.150;4.768;2023-04-03T09:44:33;16.40;99.90
16315;DHT22;8266;52.150;4.768;2023-04-03T09:47:18;16.40;99.90
16315;DHT22;8266;52.150;4.768;2023-04-03T09:49:45;16.50;99.90
16315;DHT22;8266;52.150;4.768;2023-04-03T09:52:19;16.40;99.90
16315;DHT22;8266;52.150;4.768;2023-04-03T09:54:46;16.30;99.90
16315;DHT22;8266;52.150;4.768;2023-04-03T09:57:15;16.30;99.90
16315;DHT22;8266;52.150;4.768;2023-04-03T09:59:46;16.30;99.90
16315;DHT22;8266;52.150;4.768;2023-04-03T10:02:30;16.20;99.90
16315;DHT22;8266;52.150;4.768;2023-04-03T10:04:58;16.20;99.90
16315;DHT22;8266;52.150;4.768;2023-04-03T10:07:28;16.20;99.90
16315;DHT22;8266;52.150;4.768;2023-04-03T10:09:56;16.20;99.90
16315;DHT22;8266;52.150;4.768;2023-04-03T10:12:26;16.30;99.90
16315;DHT22;8266;52.150;4.768;2023-04-03T10:14:57;16.30;99.90
16315;DHT22;8266;52.150;4.768;2023-04-03T10:17:46;16.30;99.90
16315;DHT22;8266;52.150;4.768;2023-04-03T10:20:27;16.40;99.90
16315;DHT22;8266;52.150;4.768;2023-04-03T10:23:02;16.30;99.90
16315;DHT22;8266;52.150;4.768;2023-04-03T10:25:34;16.20;99.90
16315;DHT22;8266;52.150;4.768;2023-04-03T10:28:08;16.20;99.90
16315;DHT22;8266;52.150;4.768;2023-04-03T10:30:45;16.20;99.90
16315;DHT22;8266;52.150;4.768;2023-04-03T10:33:50;16.20;99.90
16315;DHT22;8266;52.150;4.768;2023-04-03T10:36:29;16.20;99.90
16315;DHT22;8266;52.150;4.768;2023-04-03T10:39:14;16.20;99.90
16315;DHT22;8266;52.150;4.768;2023-04-03T10:41:56;16.20;99.90
16315;DHT22;8266;52.150;4.768;2023-04-03T10:44:35;16.10;99.90
16315;DHT22;8266;52.150;4.768;2023-04-03T10:47:10;16.10;99.90
16315;DHT22;8266;52.150;4.768;2023-04-03T10:49:46;16.00;99.90
16315;DHT22;8266;52.150;4.768;2023-04-03T10:52:21;16.00;94.30
16315;DHT22;8266;52.150;4.768;2023-04-03T10:54:58;15.90;96.10
16315;DHT22;8266;52.150;4.768;2023-04-03T10:57:28;15.70;92.60
16315;DHT22;8266;52.150;4.768;2023-04-03T10:59:59;15.60;99.90
16315;DHT22;8266;52.150;4.768;2023-04-03T11:02:30;15.40;99.90
16315;DHT22;8266;52.150;4.768;2023-04-03T11:05:01;15.40;99.90
16315;DHT22;8266;52.150;4.768;2023-04-03T11:07:33;15.30;99.90
16315;DHT22;8266;52.150;4.768;2023-04-03T11:10:10;15.30;99.90
16315;DHT22;8266;52.150;4.768;2023-04-03T11:12:43;15.20;98.40
16315;DHT22;8266;52.150;4.768;2023-04-03T11:15:15;15.20;97.60
16315;DHT22;8266;52.150;4.768;2023-04-03T11:17:49;15.20;99.90
16315;DHT22;8266;52.150;4.768;2023-04-03T11:20:23;15.10;97.80
16315;DHT22;8266;52.150;4.768;2023-04-03T11:23:00;15.00;96.70
16315;DHT22;8266;52.150;4.768;2023-04-03T11:25:31;15.00;99.00
16315;DHT22;8266;52.150;4.768;2023-04-03T11:28:00;14.90;98.10
16315;DHT22;8266;52.150;4.768;2023-04-03T11:30:37;14.90;99.80
16315;DHT22;8266;52.150;4.768;2023-04-03T11:33:32;14.80;97.20
16315;DHT22;8266;52.150;4.768;2023-04-03T11:36:07;14.70;97.30
16315;DHT22;8266;52.150;4.768;2023-04-03T11:38:37;14.70;99.90
16315;DHT22;8266;52.150;4.768;2023-04-03T11:41:07;14.60;98.20
16315;DHT22;8266;52.150;4.768;2023-04-03T11:43:40;14.60;97.20
16315;DHT22;8266;52.150;4.768;2023-04-03T11:46:10;14.50;98.50
16315;DHT22;8266;52.150;4.768;2023-04-03T11:48:48;14.50;98.90
16315;DHT22;8266;52.150;4.768;2023-04-03T11:51:40;14.30;97.60
16315;DHT22;8266;52.150;4.768;2023-04-03T11:57:46;14.30;97.40
16315;DHT22;8266;52.150;4.768;2023-04-03T12:00:52;14.20;97.10
16315;DHT22;8266;52.150;4.768;2023-04-03T12:04:03;14.20;97.40
16315;DHT22;8266;52.150;4.768;2023-04-03T12:12:56;14.10;94.90
16315;DHT22;8266;52.150;4.768;2023-04-03T12:18:58;14.20;98.90
16315;DHT22;8266;52.150;4.768;2023-04-03T12:24:28;14.10;97.30
16315;DHT22;8266;52.150;4.768;2023-04-03T12:27:07;14.10;97.50
16315;DHT22;8266;52.150;4.768;2023-04-03T12:29:39;14.10;97.10
16315;DHT22;8266;52.150;4.768;2023-04-03T12:32:19;14.20;98.50
16315;DHT22;8266;52.150;4.768;2023-04-03T12:35:09;14.20;96.00
16315;DHT22;8266;52.150;4.768;2023-04-03T12:37:43;14.10;93.70
16315;DHT22;8266;52.150;4.768;2023-04-03T12:40:20;14.20;97.60
16315;DHT22;8266;52.150;4.768;2023-04-03T12:45:56;14.30;95.70
16315;DHT22;8266;52.150;4.768;2023-04-03T12:48:27;14.30;99.30
16315;DHT22;8266;52.150;4.768;2023-04-03T12:50:58;14.40;97.40
16315;DHT22;8266;52.150;4.768;2023-04-03T12:53:26;14.40;93.40
16315;DHT22;8266;52.150;4.768;2023-04-03T12:55:56;14.40;96.80
16315;DHT22;8266;52.150;4.768;2023-04-03T12:58:25;14.40;96.30
16315;DHT22;8266;52.150;4.768;2023-04-03T13:01:00;14.50;97.70
16315;DHT22;8266;52.150;4.768;2023-04-03T13:03:28;14.50;98.90
16315;DHT22;8266;52.150;4.768;2023-04-03T13:06:00;14.50;97.80
16315;DHT22;8266;52.150;4.768;2023-04-03T13:08:29;14.60;96.70
16315;DHT22;8266;52.150;4.768;2023-04-03T13:11:00;14.60;96.90
16315;DHT22;8266;52.150;4.768;2023-04-03T13:13:29;14.60;95.40
16315;DHT22;8266;52.150;4.768;2023-04-03T13:15:57;14.60;94.80
16315;DHT22;8266;52.150;4.768;2023-04-03T13:18:29;14.60;97.50
16315;DHT22;8266;52.150;4.768;2023-04-03T13:21:02;14.70;99.30
16315;DHT22;8266;52.150;4.768;2023-04-03T13:23:30;14.80;96.80
16315;DHT22;8266;52.150;4.768;2023-04-03T13:25:59;14.80;96.80
16315;DHT22;8266;52.150;4.768;2023-04-03T13:28:30;14.90;95.80
16315;DHT22;8266;52.150;4.768;2023-04-03T13:31:05;14.90;95.90
16315;DHT22;8266;52.150;4.768;2023-04-03T13:33:34;15.00;93.80
16315;DHT22;8266;52.150;4.768;2023-04-03T13:36:08;15.10;95.80
16315;DHT22;8266;52.150;4.768;2023-04-03T13:38:40;15.10;95.50
16315;DHT22;8266;52.150;4.768;2023-04-03T13:41:24;15.10;99.10
16315;DHT22;8266;52.150;4.768;2023-04-03T13:43:52;15.10;95.50
16315;DHT22;8266;52.150;4.768;2023-04-03T13:46:25;15.10;98.00
16315;DHT22;8266;52.150;4.768;2023-04-03T13:48:56;15.20;97.60
16315;DHT22;8266;52.150;4.768;2023-04-03T13:51:26;15.20;96.20
16315;DHT22;8266;52.150;4.768;2023-04-03T13:53:56;15.20;92.90
16315;DHT22;8266;52.150;4.768;2023-04-03T13:56:27;15.10;93.80
16315;DHT22;8266;52.150;4.768;2023-04-03T13:59:04;15.10;95.00
16315;DHT22;8266;52.150;4.768;2023-04-03T14:01:41;15.10;97.80
16315;DHT22;8266;52.150;4.768;2023-04-03T14:04:18;15.10;92.90
16315;DHT22;8266;52.150;4.768;2023-04-03T14:06:48;15.10;92.10
16315;DHT22;8266;52.150;4.768;2023-04-03T14:09:17;15.10;96.30
16315;DHT22;8266;52.150;4.768;2023-04-03T14:11:44;15.20;95.30
16315;DHT22;8266;52.150;4.768;2023-04-03T14:14:15;15.20;96.20
16315;DHT22;8266;52.150;4.768;2023-04-03T14:16:46;15.30;96.30
16315;DHT22;8266;52.150;4.768;2023-04-03T14:19:20;15.30;90.10
16315;DHT22;8266;52.150;4.768;2023-04-03T14:21:49;15.30;95.60
16315;DHT22;8266;52.150;4.768;2023-04-03T14:24:18;15.30;92.10
16315;DHT22;8266;52.150;4.768;2023-04-03T14:26:45;15.20;94.20
16315;DHT22;8266;52.150;4.768;2023-04-03T14:29:13;15.20;90.80
16315;DHT22;8266;52.150;4.768;2023-04-03T14:31:42;15.20;92.80
16315;DHT22;8266;52.150;4.768;2023-04-03T14:34:13;15.20;93.20
16315;DHT22;8266;52.150;4.768;2023-04-03T14:36:40;15.20;93.90
16315;DHT22;8266;52.150;4.768;2023-04-03T14:39:11;15.10;93.10
16315;DHT22;8266;52.150;4.768;2023-04-03T14:41:43;15.10;91.20
16315;DHT22;8266;52.150;4.768;2023-04-03T14:44:10;15.10;93.70
16315;DHT22;8266;52.150;4.768;2023-04-03T14:46:42;15.10;92.70
16315;DHT22;8266;52.150;4.768;2023-04-03T14:49:14;15.10;91.70
16315;DHT22;8266;52.150;4.768;2023-04-03T14:51:42;15.10;92.70
16315;DHT22;8266;52.150;4.768;2023-04-03T14:54:14;15.10;92.90
16315;DHT22;8266;52.150;4.768;2023-04-03T14:56:42;15.10;95.40
16315;DHT22;8266;52.150;4.768;2023-04-03T14:59:13;15.20;94.90
16315;DHT22;8266;52.150;4.768;2023-04-03T15:01:43;15.20;94.70
16315;DHT22;8266;52.150;4.768;2023-04-03T15:04:12;15.30;94.40
16315;DHT22;8266;52.150;4.768;2023-04-03T15:06:40;15.30;93.90
16315;DHT22;8266;52.150;4.768;2023-04-03T15:09:16;15.30;93.70
16315;DHT22;8266;52.150;4.768;2023-04-03T15:11:45;15.30;93.70
16315;DHT22;8266;52.150;4.768;2023-04-03T15:14:12;15.40;94.80
16315;DHT22;8266;52.150;4.768;2023-04-03T15:16:39;15.40;94.70
16315;DHT22;8266;52.150;4.768;2023-04-03T15:19:10;15.40;92.70
16315;DHT22;8266;52.150;4.768;2023-04-03T15:21:41;15.50;94.20
16315;DHT22;8266;52.150;4.768;2023-04-03T15:24:16;15.60;94.00
16315;DHT22;8266;52.150;4.768;2023-04-03T15:26:43;15.60;94.60
16315;DHT22;8266;52.150;4.768;2023-04-03T15:29:10;15.60;95.00
16315;DHT22;8266;52.150;4.768;2023-04-03T15:31:39;15.60;95.40
16315;DHT22;8266;52.150;4.768;2023-04-03T15:34:06;15.70;95.90
16315;DHT22;8266;52.150;4.768;2023-04-03T15:36:33;15.70;96.30
16315;DHT22;8266;52.150;4.768;2023-04-03T15:39:00;15.70;92.90
16315;DHT22;8266;52.150;4.768;2023-04-03T15:41:29;15.70;93.90
16315;DHT22;8266;52.150;4.768;2023-04-03T15:43:56;15.70;95.60
16315;DHT22;8266;52.150;4.768;2023-04-03T15:46:27;15.60;92.10
16315;DHT22;8266;52.150;4.768;2023-04-03T15:48:54;15.40;92.80
16315;DHT22;8266;52.150;4.768;2023-04-03T15:51:21;15.40;93.20
16315;DHT22;8266;52.150;4.768;2023-04-03T15:53:50;15.30;92.80
16315;DHT22;8266;52.150;4.768;2023-04-03T15:56:17;15.30;93.20
16315;DHT22;8266;52.150;4.768;2023-04-03T15:58:45;15.20;95.10
16315;DHT22;8266;52.150;4.768;2023-04-03T16:01:12;15.20;94.80
16315;DHT22;8266;52.150;4.768;2023-04-03T16:03:41;15.30;95.00
16315;DHT22;8266;52.150;4.768;2023-04-03T16:06:10;15.30;95.20
16315;DHT22;8266;52.150;4.768;2023-04-03T16:08:38;15.30;93.50
16315;DHT22;8266;52.150;4.768;2023-04-03T16:11:06;15.30;94.60
16315;DHT22;8266;52.150;4.768;2023-04-03T16:13:33;15.30;92.90
16315;DHT22;8266;52.150;4.768;2023-04-03T16:16:02;15.30;93.60
16315;DHT22;8266;52.150;4.768;2023-04-03T16:18:30;15.20;92.90
16315;DHT22;8266;52.150;4.768;2023-04-03T16:20:57;15.20;92.30
16315;DHT22;8266;52.150;4.768;2023-04-03T16:23:25;15.20;94.70
16315;DHT22;8266;52.150;4.768;2023-04-03T16:25:52;15.20;93.20
16315;DHT22;8266;52.150;4.768;2023-04-03T16:28:19;15.20;93.50
16315;DHT22;8266;52.150;4.768;2023-04-03T16:30:47;15.10;93.70
16315;DHT22;8266;52.150;4.768;2023-04-03T16:33:16;15.00;92.10